createdAt,value
2019-05-19T00:00:36.965Z,83.48
2019-05-19T00:03:23.135Z,83.45
2019-05-19T00:06:09.280Z,82.84
2019-05-19T00:08:55.530Z,82.95
2019-05-19T00:11:41.743Z,83.47
2019-05-19T00:14:27.870Z,83.01
2019-05-19T00:17:14.315Z,83.10
2019-05-19T00:20:00.381Z,82.99
2019-05-19T00:22:46.385Z,83.22
2019-05-19T00:25:33.435Z,82.93
2019-05-19T00:28:19.315Z,83.87
2019-05-19T00:31:05.305Z,84.46
2019-05-19T00:33:51.659Z,84.03
2019-05-19T00:36:37.660Z,83.22
2019-05-19T00:39:23.647Z,83.23
2019-05-19T00:42:09.921Z,82.94
2019-05-19T00:44:56.116Z,83.01
2019-05-19T00:47:42.236Z,84.26
2019-05-19T00:50:28.405Z,84.55
2019-05-19T00:53:14.435Z,84.19
2019-05-19T00:56:01.693Z,83.85
2019-05-19T00:58:48.760Z,84.07
2019-05-19T01:01:34.963Z,84.69
2019-05-19T01:04:21.100Z,84.42
2019-05-19T01:07:07.207Z,84.59
2019-05-19T01:09:53.380Z,84.20
2019-05-19T01:12:39.705Z,83.92
2019-05-19T01:15:25.901Z,83.60
2019-05-19T01:18:11.975Z,83.63
2019-05-19T01:20:58.280Z,83.28
2019-05-19T01:23:44.280Z,83.43
2019-05-19T01:26:30.465Z,83.56
2019-05-19T01:29:16.527Z,83.41
2019-05-19T01:32:02.721Z,83.45
2019-05-19T01:34:48.961Z,83.61
2019-05-19T01:37:35.070Z,83.62
2019-05-19T01:40:21.220Z,84.33
2019-05-19T01:43:07.529Z,84.65
2019-05-19T01:45:53.662Z,84.51
2019-05-19T01:48:39.706Z,84.27
2019-05-19T01:51:25.932Z,84.25
2019-05-19T01:54:12.061Z,84.51
2019-05-19T01:56:58.445Z,85.46
2019-05-19T01:59:44.581Z,85.70
2019-05-19T02:02:30.730Z,85.38
2019-05-19T02:05:16.885Z,85.19
2019-05-19T02:08:03.039Z,85.19
2019-05-19T02:10:49.152Z,84.61
2019-05-19T02:13:35.601Z,84.94
2019-05-19T02:16:21.647Z,85.38
2019-05-19T02:19:07.771Z,85.19
2019-05-19T02:21:54.116Z,85.05
2019-05-19T02:24:40.292Z,84.76
2019-05-19T02:27:26.395Z,85.22
2019-05-19T02:30:12.487Z,85.32
2019-05-19T02:32:58.694Z,84.76
2019-05-19T02:35:44.861Z,84.84
2019-05-19T02:38:30.925Z,84.92
2019-05-19T02:41:17.842Z,85.19
2019-05-19T02:44:04.951Z,85.43
2019-05-19T02:46:51.145Z,85.87
2019-05-19T02:49:37.280Z,85.65
2019-05-19T02:52:24.364Z,85.75
2019-05-19T02:55:10.457Z,86.35
2019-05-19T02:57:57.455Z,85.73
2019-05-19T03:00:43.934Z,86.13
2019-05-19T03:03:30.072Z,86.44
2019-05-19T03:06:16.140Z,86.51
2019-05-19T03:09:04.308Z,86.55
2019-05-19T03:11:50.219Z,86.04
2019-05-19T03:14:36.202Z,86.56
2019-05-19T03:17:22.499Z,85.32
2019-05-19T03:20:08.575Z,85.79
2019-05-19T03:22:54.605Z,85.85
2019-05-19T03:25:44.088Z,85.39
2019-05-19T03:28:28.821Z,85.49
2019-05-19T03:31:25.182Z,85.93
2019-05-19T03:34:11.566Z,85.91
2019-05-19T03:36:58.039Z,86.51
2019-05-19T03:39:44.119Z,86.21
2019-05-19T03:42:30.306Z,85.57
2019-05-19T03:45:16.452Z,85.83
2019-05-19T03:48:02.541Z,85.79
2019-05-19T03:50:48.676Z,85.22
2019-05-19T03:53:34.926Z,85.15
2019-05-19T03:56:20.981Z,84.36
2019-05-19T03:59:07.127Z,85.64
2019-05-19T04:01:53.230Z,84.93
2019-05-19T04:04:39.396Z,85.04
2019-05-19T04:07:25.485Z,85.52
2019-05-19T04:10:12.582Z,85.61
2019-05-19T04:12:58.756Z,85.08
2019-05-19T04:15:44.984Z,84.81
2019-05-19T04:18:30.995Z,84.52
2019-05-19T04:21:16.991Z,84.53
2019-05-19T04:24:03.310Z,84.36
2019-05-19T04:26:49.431Z,83.75
2019-05-19T04:29:39.194Z,81.31
2019-05-19T04:32:23.881Z,80.40
2019-05-19T04:35:09.946Z,79.86
2019-05-19T04:37:56.390Z,80.20
2019-05-19T04:40:42.736Z,80.06
2019-05-19T04:43:28.800Z,79.78
2019-05-19T04:46:14.991Z,80.64
2019-05-19T04:49:01.261Z,80.45
2019-05-19T04:51:47.245Z,79.14
2019-05-19T04:54:33.380Z,76.80
2019-05-19T04:57:19.483Z,73.16
2019-05-19T05:00:05.855Z,72.44
2019-05-19T05:02:51.997Z,70.29
2019-05-19T05:05:37.976Z,69.82
2019-05-19T05:08:29.988Z,69.60
2019-05-19T05:11:11.880Z,71.88
2019-05-19T05:13:57.982Z,71.15
2019-05-19T05:16:44.177Z,71.40
2019-05-19T05:19:30.418Z,71.70
2019-05-19T05:22:22.135Z,72.38
2019-05-19T05:25:04.715Z,71.77
2019-05-19T05:27:50.851Z,72.25
2019-05-19T05:30:36.950Z,72.16
2019-05-19T05:33:23.107Z,70.16
2019-05-19T05:36:09.465Z,69.55
2019-05-19T05:38:55.517Z,68.01
2019-05-19T05:41:41.598Z,67.30
2019-05-19T05:44:27.841Z,65.32
2019-05-19T05:47:14.015Z,63.08
2019-05-19T05:50:00.264Z,64.50
2019-05-19T05:52:46.358Z,65.20
2019-05-19T05:55:32.555Z,63.50
2019-05-19T05:58:18.973Z,63.55
2019-05-19T06:01:05.021Z,62.99
2019-05-19T06:03:51.218Z,62.67
2019-05-19T06:06:37.351Z,61.23
2019-05-19T06:09:23.425Z,59.92
2019-05-19T06:12:09.555Z,59.12
2019-05-19T06:14:55.819Z,60.02
2019-05-19T06:17:41.928Z,59.01
2019-05-19T06:20:28.145Z,58.38
2019-05-19T06:23:14.240Z,57.71
2019-05-19T06:26:00.431Z,57.19
2019-05-19T06:28:46.696Z,59.89
2019-05-19T06:31:32.785Z,60.80
2019-05-19T06:34:18.911Z,62.41
2019-05-19T06:37:05.221Z,63.41
2019-05-19T06:39:51.370Z,63.68
2019-05-19T06:42:37.540Z,62.19
2019-05-19T06:45:23.960Z,62.15
2019-05-19T06:48:10.256Z,60.20
2019-05-19T06:50:56.446Z,58.86
2019-05-19T06:53:42.522Z,57.09
2019-05-19T06:56:28.534Z,54.84
2019-05-19T06:59:15.046Z,52.88
2019-05-19T07:02:01.036Z,51.99
2019-05-19T07:04:47.215Z,50.39
2019-05-19T07:07:33.541Z,48.76
2019-05-19T07:10:19.650Z,48.91
2019-05-19T07:13:05.659Z,48.58
2019-05-19T07:15:51.946Z,50.08
2019-05-19T07:18:37.990Z,49.36
2019-05-19T07:21:24.116Z,49.22
2019-05-19T07:24:11.589Z,47.93
2019-05-19T07:26:57.789Z,48.18
2019-05-19T07:29:44.011Z,46.15
2019-05-19T07:32:30.006Z,46.54
2019-05-19T07:35:16.337Z,46.34
2019-05-19T07:38:02.640Z,45.14
2019-05-19T07:40:48.581Z,47.89
2019-05-19T07:43:34.569Z,48.91
2019-05-19T07:46:20.915Z,48.46
2019-05-19T07:49:07.085Z,48.85
2019-05-19T07:51:53.365Z,49.31
2019-05-19T07:54:39.646Z,51.35
2019-05-19T07:57:25.603Z,50.66
2019-05-19T08:00:11.815Z,49.33
2019-05-19T08:02:57.823Z,49.42
2019-05-19T08:05:43.931Z,49.47
2019-05-19T08:08:30.232Z,49.09
2019-05-19T08:11:16.370Z,48.20
2019-05-19T08:14:02.476Z,50.48
2019-05-19T08:16:48.791Z,49.48
2019-05-19T08:19:34.840Z,47.41
2019-05-19T08:22:21.037Z,48.39
2019-05-19T08:25:07.179Z,47.66
2019-05-19T08:27:53.152Z,47.47
2019-05-19T08:30:39.634Z,46.36
2019-05-19T08:33:25.998Z,46.91
2019-05-19T08:36:12.046Z,46.09
2019-05-19T08:38:58.335Z,49.10
2019-05-19T08:41:44.361Z,47.72
2019-05-19T08:44:30.580Z,44.63
2019-05-19T08:47:18.677Z,48.28
2019-05-19T08:50:05.732Z,48.00
2019-05-19T08:52:51.692Z,45.78
2019-05-19T08:55:37.945Z,46.52
2019-05-19T08:58:23.951Z,45.49
2019-05-19T09:01:10.141Z,46.12
2019-05-19T09:03:56.451Z,44.64
2019-05-19T09:06:42.415Z,45.71
2019-05-19T09:09:28.492Z,44.34
2019-05-19T09:12:14.675Z,45.53
2019-05-19T09:15:00.789Z,45.24
2019-05-19T09:17:47.011Z,44.14
2019-05-19T09:20:33.036Z,45.55
2019-05-19T09:23:19.231Z,46.20
2019-05-19T09:26:05.606Z,45.12
2019-05-19T09:28:51.780Z,46.79
2019-05-19T09:31:41.230Z,44.69
2019-05-19T09:34:26.431Z,44.14
2019-05-19T09:37:12.501Z,45.52
2019-05-19T09:39:58.648Z,46.30
2019-05-19T09:42:45.036Z,44.88
2019-05-19T09:45:31.241Z,44.04
2019-05-19T09:48:17.430Z,45.26
2019-05-19T09:51:03.885Z,45.93
2019-05-19T09:53:49.800Z,46.52
2019-05-19T09:56:35.948Z,45.25
2019-05-19T09:59:21.982Z,44.79
2019-05-19T10:02:08.150Z,44.62
2019-05-19T10:04:54.326Z,42.59
2019-05-19T10:07:40.330Z,43.41
2019-05-19T10:10:35.705Z,42.52
2019-05-19T10:13:21.856Z,42.46
2019-05-19T10:16:08.136Z,41.26
2019-05-19T10:18:54.290Z,42.77
2019-05-19T10:21:40.440Z,42.35
2019-05-19T10:24:26.646Z,42.79
2019-05-19T10:27:12.764Z,42.37
2019-05-19T10:29:59.003Z,45.14
2019-05-19T10:32:45.320Z,42.95
2019-05-19T10:35:31.411Z,41.83
2019-05-19T10:38:17.985Z,40.32
2019-05-19T10:41:04.425Z,41.35
2019-05-19T10:44:00.800Z,41.09
2019-05-19T10:46:47.110Z,41.12
2019-05-19T10:49:33.279Z,41.19
2019-05-19T10:52:19.635Z,41.32
2019-05-19T10:55:06.041Z,40.21
2019-05-19T10:57:52.206Z,39.01
2019-05-19T11:00:38.485Z,39.30
2019-05-19T11:03:24.933Z,39.53
2019-05-19T11:06:10.991Z,40.88
2019-05-19T11:08:57.275Z,41.15
2019-05-19T11:11:43.369Z,43.04
2019-05-19T11:14:29.451Z,40.67
2019-05-19T11:17:15.765Z,40.14
2019-05-19T11:20:02.098Z,41.97
2019-05-19T11:22:49.921Z,41.24
2019-05-19T11:25:49.287Z,42.32
2019-05-19T11:28:24.349Z,41.28
2019-05-19T11:31:10.424Z,41.20
2019-05-19T11:33:57.575Z,42.03
2019-05-19T11:36:43.475Z,42.03
2019-05-19T11:39:29.621Z,42.17
2019-05-19T11:42:15.906Z,41.46
2019-05-19T11:45:02.007Z,40.06
2019-05-19T11:47:48.411Z,40.43
2019-05-19T11:50:34.577Z,40.43
2019-05-19T11:53:20.770Z,40.84
2019-05-19T11:56:11.002Z,40.15
2019-05-19T11:58:55.066Z,40.80
2019-05-19T12:01:41.026Z,41.75
2019-05-19T12:04:27.216Z,39.35
2019-05-19T12:07:13.291Z,38.10
2019-05-19T12:09:59.470Z,40.76
2019-05-19T12:12:45.708Z,40.28
2019-05-19T12:15:31.822Z,39.85
2019-05-19T12:18:17.923Z,39.57
2019-05-19T12:21:04.157Z,39.02
2019-05-19T12:23:50.402Z,40.16
2019-05-19T12:26:36.551Z,39.79
2019-05-19T12:29:22.766Z,39.85
2019-05-19T12:32:08.871Z,39.54
2019-05-19T12:34:55.161Z,40.08
2019-05-19T12:37:44.246Z,39.71
2019-05-19T12:40:30.459Z,40.22
2019-05-19T12:43:16.635Z,41.78
2019-05-19T12:46:02.841Z,40.88
2019-05-19T12:48:49.076Z,42.63
2019-05-19T12:51:35.280Z,42.16
2019-05-19T12:54:21.391Z,40.98
2019-05-19T12:57:07.497Z,40.46
2019-05-19T12:59:53.736Z,39.69
2019-05-19T13:02:39.792Z,40.21
2019-05-19T13:05:25.928Z,40.02
2019-05-19T13:08:12.333Z,41.88
2019-05-19T13:10:58.280Z,40.81
2019-05-19T13:13:44.395Z,40.99
2019-05-19T13:16:30.681Z,40.32
2019-05-19T13:19:16.877Z,41.34
2019-05-19T13:22:03.102Z,40.51
2019-05-19T13:24:49.126Z,41.21
2019-05-19T13:27:35.187Z,41.70
2019-05-19T13:30:21.481Z,40.95
2019-05-19T13:33:07.533Z,42.60
2019-05-19T13:35:53.620Z,43.36
2019-05-19T13:38:40.051Z,42.08
2019-05-19T13:41:25.960Z,42.42
2019-05-19T13:44:12.276Z,42.19
2019-05-19T13:46:59.905Z,42.05
2019-05-19T13:49:46.055Z,41.77
2019-05-19T13:52:32.287Z,42.16
2019-05-19T13:55:18.556Z,41.71
2019-05-19T13:58:04.625Z,42.79
2019-05-19T14:00:50.685Z,43.57
2019-05-19T14:03:36.917Z,42.89
2019-05-19T14:06:23.021Z,42.92
2019-05-19T14:09:09.246Z,42.64
2019-05-19T14:11:55.285Z,43.69
2019-05-19T14:14:41.583Z,44.17
2019-05-19T14:17:28.221Z,45.42
2019-05-19T14:20:15.547Z,43.34
2019-05-19T14:23:01.695Z,44.23
2019-05-19T14:25:48.031Z,44.37
2019-05-19T14:28:34.231Z,44.78
2019-05-19T14:31:21.719Z,43.78
2019-05-19T14:34:08.246Z,44.17
2019-05-19T14:36:54.396Z,43.28
2019-05-19T14:39:40.673Z,43.64
2019-05-19T14:42:44.921Z,43.39
2019-05-19T14:45:31.659Z,43.82
2019-05-19T14:48:17.915Z,44.57
2019-05-19T14:51:04.190Z,42.61
2019-05-19T14:53:50.311Z,44.29
2019-05-19T14:56:36.432Z,44.35
2019-05-19T14:59:22.851Z,42.90
2019-05-19T15:02:09.060Z,43.06
2019-05-19T15:04:55.488Z,42.22
2019-05-19T15:07:41.505Z,42.22
2019-05-19T15:10:27.750Z,42.30
2019-05-19T15:13:13.807Z,42.48
2019-05-19T15:15:59.918Z,41.18
2019-05-19T15:18:45.982Z,41.55
2019-05-19T15:21:33.340Z,42.85
2019-05-19T15:24:19.524Z,41.70
2019-05-19T15:27:05.651Z,40.94
2019-05-19T15:29:53.274Z,41.19
2019-05-19T15:32:39.530Z,46.07
2019-05-19T15:35:25.670Z,46.07
2019-05-19T15:38:11.859Z,46.39
2019-05-19T15:40:58.103Z,46.07
2019-05-19T15:43:44.264Z,46.07
2019-05-19T15:46:30.535Z,46.25
2019-05-19T15:49:16.510Z,45.87
2019-05-19T15:52:05.256Z,46.06
2019-05-19T15:54:51.067Z,47.12
2019-05-19T15:57:37.176Z,47.12
2019-05-19T16:00:23.346Z,47.93
2019-05-19T16:03:09.429Z,49.49
2019-05-19T16:05:55.660Z,50.32
2019-05-19T16:08:41.772Z,50.23
2019-05-19T16:11:27.965Z,50.53
2019-05-19T16:14:14.020Z,50.02
2019-05-19T16:17:00.244Z,50.41
2019-05-19T16:19:46.384Z,50.67
2019-05-19T16:22:32.380Z,51.37
2019-05-19T16:25:18.655Z,51.71
2019-05-19T16:28:04.728Z,51.77
2019-05-19T16:30:50.963Z,50.67
2019-05-19T16:33:37.179Z,50.75
2019-05-19T16:36:23.229Z,50.87
2019-05-19T16:39:09.364Z,50.38
2019-05-19T16:41:55.375Z,50.29
2019-05-19T16:44:41.600Z,50.16
2019-05-19T16:47:27.804Z,50.25
2019-05-19T16:50:14.014Z,50.21
2019-05-19T16:53:00.030Z,50.23
2019-05-19T16:55:46.379Z,50.57
2019-05-19T16:58:44.366Z,50.37
2019-05-19T17:01:20.416Z,50.42
2019-05-19T17:04:06.650Z,50.73
2019-05-19T17:06:52.748Z,50.21
2019-05-19T17:09:38.965Z,50.33
2019-05-19T17:12:25.144Z,50.22
2019-05-19T17:15:11.194Z,50.29
2019-05-19T17:17:57.364Z,50.06
2019-05-19T17:20:43.475Z,49.51
2019-05-19T17:23:29.720Z,49.57
2019-05-19T17:26:16.299Z,49.03
2019-05-19T17:29:02.315Z,48.17
2019-05-19T17:31:48.538Z,47.83
2019-05-19T17:34:34.780Z,48.19
2019-05-19T17:37:20.939Z,47.81
2019-05-19T17:40:07.661Z,47.45
2019-05-19T17:42:53.985Z,47.18
2019-05-19T17:45:40.229Z,47.61
2019-05-19T17:48:27.093Z,47.60
2019-05-19T17:51:13.710Z,48.38
2019-05-19T17:53:59.854Z,48.15
2019-05-19T17:56:47.144Z,47.73
2019-05-19T17:59:33.844Z,47.89
2019-05-19T18:02:20.387Z,47.92
2019-05-19T18:05:06.964Z,48.33
2019-05-19T18:07:53.180Z,48.41
2019-05-19T18:10:39.407Z,48.74
2019-05-19T18:13:25.685Z,49.04
2019-05-19T18:16:12.119Z,48.60
2019-05-19T18:18:58.153Z,49.03
2019-05-19T18:21:44.404Z,49.19
2019-05-19T18:24:30.225Z,49.09
2019-05-19T18:27:16.414Z,49.41
2019-05-19T18:30:02.844Z,49.08
2019-05-19T18:32:48.966Z,49.90
2019-05-19T18:35:34.926Z,50.09
2019-05-19T18:38:20.989Z,50.27
2019-05-19T18:41:07.405Z,50.28
2019-05-19T18:43:53.820Z,50.48
2019-05-19T18:46:40.820Z,50.77
2019-05-19T18:49:26.869Z,50.70
2019-05-19T18:52:13.065Z,51.31
2019-05-19T18:54:59.360Z,51.57
2019-05-19T18:57:45.790Z,51.80
2019-05-19T19:00:34.317Z,51.84
2019-05-19T19:03:20.799Z,52.15
2019-05-19T19:06:06.890Z,52.46
2019-05-19T19:08:53.116Z,52.59
2019-05-19T19:11:39.492Z,52.55
2019-05-19T19:14:27.646Z,53.27
2019-05-19T19:17:14.057Z,53.09
2019-05-19T19:20:00.562Z,53.62
2019-05-19T19:22:47.007Z,53.66
2019-05-19T19:25:33.423Z,54.25
2019-05-19T19:28:19.985Z,54.15
2019-05-19T19:31:05.975Z,54.48
2019-05-19T19:33:52.306Z,54.87
2019-05-19T19:36:38.935Z,54.96
2019-05-19T19:39:25.543Z,55.00
2019-05-19T19:42:11.705Z,55.29
2019-05-19T19:44:58.445Z,55.59
2019-05-19T19:47:45.055Z,56.37
2019-05-19T19:50:31.202Z,56.94
2019-05-19T19:53:17.656Z,57.32
2019-05-19T19:56:03.649Z,57.22
2019-05-19T19:58:50.250Z,57.37
2019-05-19T20:01:36.797Z,57.28
2019-05-19T20:04:23.330Z,57.72
2019-05-19T20:07:09.785Z,57.82
2019-05-19T20:09:56.231Z,57.74
2019-05-19T20:12:42.480Z,58.21
2019-05-19T20:15:28.740Z,58.31
2019-05-19T20:18:14.976Z,58.73
2019-05-19T20:21:01.110Z,58.91
2019-05-19T20:23:47.185Z,59.14
2019-05-19T20:26:33.269Z,59.26
2019-05-19T20:29:19.489Z,59.86
2019-05-19T20:32:05.627Z,60.21
2019-05-19T20:34:51.787Z,60.61
2019-05-19T20:37:38.197Z,60.90
2019-05-19T20:40:24.632Z,61.42
2019-05-19T20:43:10.746Z,61.63
2019-05-19T20:45:57.484Z,61.92
2019-05-19T20:48:43.947Z,62.25
2019-05-19T20:51:32.873Z,63.00
2019-05-19T20:54:19.064Z,63.46
2019-05-19T20:57:05.079Z,63.85
2019-05-19T20:59:51.266Z,64.29
2019-05-19T21:02:37.666Z,64.80
2019-05-19T21:05:23.785Z,65.10
2019-05-19T21:08:09.939Z,65.41
2019-05-19T21:10:56.064Z,65.70
2019-05-19T21:13:42.204Z,65.86
2019-05-19T21:16:28.423Z,66.28
2019-05-19T21:19:14.565Z,66.41
2019-05-19T21:22:00.639Z,66.48
2019-05-19T21:24:46.845Z,66.68
2019-05-19T21:27:32.956Z,67.11
2019-05-19T21:30:19.020Z,67.27
2019-05-19T21:33:05.375Z,67.81
2019-05-19T21:35:51.415Z,68.08
2019-05-19T21:38:37.490Z,67.93
2019-05-19T21:41:23.690Z,68.61
2019-05-19T21:44:09.800Z,69.13
2019-05-19T21:46:55.930Z,69.23
2019-05-19T21:49:42.082Z,69.63
2019-05-19T21:52:28.249Z,69.99
2019-05-19T21:55:14.656Z,70.23
2019-05-19T21:58:00.460Z,70.08
2019-05-19T22:00:47.021Z,69.75
2019-05-19T22:03:33.531Z,69.91
2019-05-19T22:06:21.454Z,69.96
2019-05-19T22:09:07.421Z,70.67
2019-05-19T22:11:53.860Z,71.14
2019-05-19T22:14:39.890Z,71.24
2019-05-19T22:17:25.977Z,71.54
2019-05-19T22:20:12.405Z,71.84
2019-05-19T22:22:58.365Z,72.24
2019-05-19T22:25:44.960Z,72.24
2019-05-19T22:28:31.364Z,72.10
2019-05-19T22:31:17.416Z,72.22
2019-05-19T22:34:03.629Z,72.33
2019-05-19T22:36:49.579Z,72.35
2019-05-19T22:39:35.746Z,72.89
2019-05-19T22:42:21.995Z,73.15
2019-05-19T22:45:08.195Z,73.31
2019-05-19T22:47:54.264Z,73.26
2019-05-19T22:50:40.608Z,73.45
2019-05-19T22:53:26.810Z,73.46
2019-05-19T22:56:13.158Z,73.46
2019-05-19T22:58:59.361Z,73.69
2019-05-19T23:01:51.771Z,74.02
2019-05-19T23:04:33.635Z,73.80
2019-05-19T23:07:19.860Z,73.90
2019-05-19T23:10:06.549Z,74.34
2019-05-19T23:12:52.842Z,75.17
2019-05-19T23:15:38.986Z,75.29
2019-05-19T23:18:25.034Z,75.54
2019-05-19T23:21:11.211Z,76.12
2019-05-19T23:23:57.345Z,76.47
2019-05-19T23:26:43.540Z,76.07
2019-05-19T23:29:29.850Z,75.54
2019-05-19T23:32:15.879Z,76.48
2019-05-19T23:35:02.072Z,77.02
2019-05-19T23:37:48.190Z,76.93
2019-05-19T23:40:34.273Z,76.79
2019-05-19T23:43:20.444Z,77.21
2019-05-19T23:46:06.631Z,77.06
2019-05-19T23:48:52.725Z,77.31
2019-05-19T23:51:39.042Z,77.78
2019-05-19T23:54:25.294Z,78.00
2019-05-19T23:57:11.600Z,78.05
2019-05-19T23:59:58.040Z,77.79
